sensor_id;sensor_type;location;lat;lon;timestamp;pressure;altitude;pressure_sealevel;temperature;humidity
5522;BME280;2783;48.730;8.006;2023-06-26T00:01:39;99938.28;;;20.77;89.74
5522;BME280;2783;48.730;8.006;2023-06-26T00:04:05;99928.47;;;20.76;89.99
5522;BME280;2783;48.730;8.006;2023-06-26T00:06:30;99934.09;;;20.73;90.27
5522;BME280;2783;48.730;8.006;2023-06-26T00:08:56;99934.22;;;20.72;90.55
5522;BME280;2783;48.730;8.006;2023-06-26T00:11:24;99936.06;;;20.71;91.04
5522;BME280;2783;48.730;8.006;2023-06-26T00:13:50;99941.69;;;20.68;90.97
5522;BME280;2783;48.730;8.006;2023-06-26T00:16:16;99938.47;;;20.63;91.37
5522;BME280;2783;48.730;8.006;2023-06-26T00:18:41;99929.69;;;20.49;90.83
5522;BME280;2783;48.730;8.006;2023-06-26T00:21:06;99945.00;;;20.48;90.95
5522;BME280;2783;48.730;8.006;2023-06-26T00:23:32;99933.91;;;20.40;91.51
5522;BME280;2783;48.730;8.006;2023-06-26T00:26:02;99947.19;;;20.43;91.85
5522;BME280;2783;48.730;8.006;2023-06-26T00:28:27;99954.13;;;20.47;91.83
5522;BME280;2783;48.730;8.006;2023-06-26T00:30:53;99953.34;;;20.45;91.58
5522;BME280;2783;48.730;8.006;2023-06-26T00:33:18;99953.59;;;20.42;92.11
5522;BME280;2783;48.730;8.006;2023-06-26T00:35:43;99949.13;;;20.41;92.66
5522;BME280;2783;48.730;8.006;2023-06-26T00:38:09;99945.19;;;20.34;92.45
5522;BME280;2783;48.730;8.006;2023-06-26T00:40:34;99954.78;;;20.38;92.71
5522;BME280;2783;48.730;8.006;2023-06-26T00:43:00;99951.13;;;20.39;92.75
5522;BME280;2783;48.730;8.006;2023-06-26T00:45:25;99946.66;;;20.38;93.00
5522;BME280;2783;48.730;8.006;2023-06-26T00:47:51;99952.31;;;20.35;92.41
5522;BME280;2783;48.730;8.006;2023-06-26T00:50:16;99946.78;;;20.37;92.01
5522;BME280;2783;48.730;8.006;2023-06-26T00:52:43;99944.19;;;20.35;90.68
5522;BME280;2783;48.730;8.006;2023-06-26T00:55:08;99947.19;;;20.43;89.20
5522;BME280;2783;48.730;8.006;2023-06-26T00:57:34;99954.13;;;20.47;86.94
5522;BME280;2783;48.730;8.006;2023-06-26T01:00:01;99949.00;;;20.55;86.79
5522;BME280;2783;48.730;8.006;2023-06-26T01:03:01;99954.28;;;20.57;86.86
5522;BME280;2783;48.730;8.006;2023-06-26T01:05:27;99950.19;;;20.51;86.60
5522;BME280;2783;48.730;8.006;2023-06-26T01:07:53;99946.72;;;20.49;85.92
5522;BME280;2783;48.730;8.006;2023-06-26T01:10:20;99954.28;;;20.57;85.87
5522;BME280;2783;48.730;8.006;2023-06-26T01:12:45;99958.38;;;20.62;85.51
5522;BME280;2783;48.730;8.006;2023-06-26T01:15:11;99956.41;;;20.64;83.10
5522;BME280;2783;48.730;8.006;2023-06-26T01:17:37;99950.31;;;20.73;81.94
5522;BME280;2783;48.730;8.006;2023-06-26T01:20:05;99949.84;;;20.79;81.92
5522;BME280;2783;48.730;8.006;2023-06-26T01:22:39;99948.13;;;20.78;82.67
5522;BME280;2783;48.730;8.006;2023-06-26T01:25:21;99941.97;;;20.76;82.99
5522;BME280;2783;48.730;8.006;2023-06-26T01:27:50;99938.63;;;20.73;83.82
5522;BME280;2783;48.730;8.006;2023-06-26T01:30:17;99947.09;;;20.68;83.90
5522;BME280;2783;48.730;8.006;2023-06-26T01:32:44;99944.13;;;20.60;84.50
5522;BME280;2783;48.730;8.006;2023-06-26T01:35:11;99937.44;;;20.53;84.83
5522;BME280;2783;48.730;8.006;2023-06-26T01:37:36;99936.38;;;20.43;85.42
5522;BME280;2783;48.730;8.006;2023-06-26T01:40:02;99922.59;;;20.35;86.30
5522;BME280;2783;48.730;8.006;2023-06-26T01:42:33;99919.13;;;20.33;86.97
5522;BME280;2783;48.730;8.006;2023-06-26T01:45:03;99924.00;;;20.28;87.43
5522;BME280;2783;48.730;8.006;2023-06-26T01:47:30;99923.47;;;20.23;88.02
5522;BME280;2783;48.730;8.006;2023-06-26T01:50:09;99912.38;;;20.15;87.98
5522;BME280;2783;48.730;8.006;2023-06-26T01:52:53;99922.38;;;20.13;87.88
5522;BME280;2783;48.730;8.006;2023-06-26T01:55:32;99925.22;;;20.12;88.02
5522;BME280;2783;48.730;8.006;2023-06-26T01:58:01;99915.09;;;20.03;88.08
5522;BME280;2783;48.730;8.006;2023-06-26T02:00:26;99912.50;;;20.01;88.46
5522;BME280;2783;48.730;8.006;2023-06-26T02:02:53;99920.50;;;20.03;88.76
5522;BME280;2783;48.730;8.006;2023-06-26T02:05:18;99919.84;;;19.99;89.20
5522;BME280;2783;48.730;8.006;2023-06-26T02:07:44;99921.38;;;19.91;89.20
5522;BME280;2783;48.730;8.006;2023-06-26T02:10:09;99923.66;;;19.84;89.06
5522;BME280;2783;48.730;8.006;2023-06-26T02:12:37;99914.78;;;19.82;89.81
5522;BME280;2783;48.730;8.006;2023-06-26T02:15:03;99909.63;;;19.79;90.53
5522;BME280;2783;48.730;8.006;2023-06-26T02:17:29;99907.03;;;19.78;90.44
5522;BME280;2783;48.730;8.006;2023-06-26T02:19:55;99906.91;;;19.79;89.74
5522;BME280;2783;48.730;8.006;2023-06-26T02:22:20;99898.72;;;19.81;90.62
5522;BME280;2783;48.730;8.006;2023-06-26T02:24:46;99908.66;;;19.80;90.18
5522;BME280;2783;48.730;8.006;2023-06-26T02:27:11;99899.81;;;19.78;90.14
5522;BME280;2783;48.730;8.006;2023-06-26T02:29:37;99898.06;;;19.77;89.77
5522;BME280;2783;48.730;8.006;2023-06-26T02:32:03;99899.91;;;19.77;90.08
5522;BME280;2783;48.730;8.006;2023-06-26T02:34:28;99899.69;;;19.80;90.76
5522;BME280;2783;48.730;8.006;2023-06-26T02:36:55;99907.78;;;19.80;89.76
5522;BME280;2783;48.730;8.006;2023-06-26T02:39:21;99908.00;;;19.77;88.62
5522;BME280;2783;48.730;8.006;2023-06-26T02:41:47;99905.50;;;19.74;87.97
5522;BME280;2783;48.730;8.006;2023-06-26T02:44:12;99905.63;;;19.72;87.45
5522;BME280;2783;48.730;8.006;2023-06-26T02:46:39;99910.28;;;19.70;87.74
5522;BME280;2783;48.730;8.006;2023-06-26T02:49:05;99905.31;;;19.64;88.88
5522;BME280;2783;48.730;8.006;2023-06-26T02:51:32;99917.09;;;19.63;89.02
5522;BME280;2783;48.730;8.006;2023-06-26T02:53:58;99924.09;;;19.53;89.79
5522;BME280;2783;48.730;8.006;2023-06-26T02:56:23;99906.50;;;19.47;89.81
5522;BME280;2783;48.730;8.006;2023-06-26T02:58:49;99908.38;;;19.47;90.23
5522;BME280;2783;48.730;8.006;2023-06-26T03:01:14;99909.09;;;19.49;90.53
5522;BME280;2783;48.730;8.006;2023-06-26T03:03:41;99924.66;;;19.58;89.99
5522;BME280;2783;48.730;8.006;2023-06-26T03:06:07;99919.56;;;19.66;90.10
5522;BME280;2783;48.730;8.006;2023-06-26T03:08:36;99916.41;;;19.72;88.85
5522;BME280;2783;48.730;8.006;2023-06-26T03:11:02;99925.28;;;19.74;88.39
5522;BME280;2783;48.730;8.006;2023-06-26T03:13:27;99916.31;;;19.74;88.04
5522;BME280;2783;48.730;8.006;2023-06-26T03:15:53;99921.63;;;19.75;87.97
5522;BME280;2783;48.730;8.006;2023-06-26T03:18:18;99925.28;;;19.74;88.15
5522;BME280;2783;48.730;8.006;2023-06-26T03:20:43;99933.38;;;19.74;88.03
5522;BME280;2783;48.730;8.006;2023-06-26T03:23:09;99923.13;;;19.67;87.56
5522;BME280;2783;48.730;8.006;2023-06-26T03:25:34;99929.72;;;19.62;87.60
5522;BME280;2783;48.730;8.006;2023-06-26T03:28:00;99919.47;;;19.55;87.45
5522;BME280;2783;48.730;8.006;2023-06-26T03:30:25;99914.31;;;19.52;88.28
5522;BME280;2783;48.730;8.006;2023-06-26T03:32:50;99927.56;;;19.55;89.02
5522;BME280;2783;48.730;8.006;2023-06-26T03:35:16;99933.06;;;19.53;89.25
5522;BME280;2783;48.730;8.006;2023-06-26T03:37:41;99927.88;;;19.50;89.88
5522;BME280;2783;48.730;8.006;2023-06-26T03:40:07;99924.66;;;19.45;89.57
5522;BME280;2783;48.730;8.006;2023-06-26T03:42:33;99935.88;;;19.52;88.83
5522;BME280;2783;48.730;8.006;2023-06-26T03:44:58;99935.34;;;19.47;88.69
5522;BME280;2783;48.730;8.006;2023-06-26T03:47:24;99932.84;;;19.44;88.92
5522;BME280;2783;48.730;8.006;2023-06-26T03:49:49;99939.00;;;19.46;89.43
5522;BME280;2783;48.730;8.006;2023-06-26T03:52:14;99933.50;;;19.47;89.20
5522;BME280;2783;48.730;8.006;2023-06-26T03:54:40;99939.53;;;19.51;90.05
5522;BME280;2783;48.730;8.006;2023-06-26T03:57:06;99933.06;;;19.53;90.08
5522;BME280;2783;48.730;8.006;2023-06-26T03:59:32;99937.03;;;19.60;90.09
5522;BME280;2783;48.730;8.006;2023-06-26T04:01:57;99942.16;;;19.65;90.29
5522;BME280;2783;48.730;8.006;2023-06-26T04:04:22;99935.44;;;19.71;90.42
5522;BME280;2783;48.730;8.006;2023-06-26T04:06:48;99940.84;;;19.83;89.68
5522;BME280;2783;48.730;8.006;2023-06-26T04:09:13;99944.38;;;19.96;88.41
5522;BME280;2783;48.730;8.006;2023-06-26T04:11:39;99940.75;;;20.08;88.31
5522;BME280;2783;48.730;8.006;2023-06-26T04:14:04;99942.72;;;20.19;87.30
5522;BME280;2783;48.730;8.006;2023-06-26T04:16:30;99958.16;;;20.29;87.39
5522;BME280;2783;48.730;8.006;2023-06-26T04:18:55;99957.72;;;20.35;86.59
5522;BME280;2783;48.730;8.006;2023-06-26T04:21:21;99965.16;;;20.44;86.95
5522;BME280;2783;48.730;8.006;2023-06-26T04:23:49;99972.03;;;20.48;86.44
5522;BME280;2783;48.730;8.006;2023-06-26T04:26:15;99962.00;;;20.50;85.65
5522;BME280;2783;48.730;8.006;2023-06-26T04:28:40;99963.69;;;20.51;85.28
5522;BME280;2783;48.730;8.006;2023-06-26T04:31:06;99955.88;;;20.59;84.52
5522;BME280;2783;48.730;8.006;2023-06-26T04:33:32;99963.56;;;20.65;83.05
5522;BME280;2783;48.730;8.006;2023-06-26T04:35:57;99962.84;;;20.74;82.63
5522;BME280;2783;48.730;8.006;2023-06-26T04:38:23;99956.38;;;20.77;82.00
5522;BME280;2783;48.730;8.006;2023-06-26T04:40:48;99965.16;;;20.91;81.15
5522;BME280;2783;48.730;8.006;2023-06-26T04:43:14;99961.06;;;20.99;81.35
5522;BME280;2783;48.730;8.006;2023-06-26T04:45:40;99961.06;;;20.99;79.52
5522;BME280;2783;48.730;8.006;2023-06-26T04:48:05;99959.47;;;21.07;79.70
5522;BME280;2783;48.730;8.006;2023-06-26T04:50:34;99965.78;;;21.19;79.53
5522;BME280;2783;48.730;8.006;2023-06-26T04:53:00;99960.44;;;21.30;79.68
5522;BME280;2783;48.730;8.006;2023-06-26T04:55:26;99974.47;;;21.35;78.55
5522;BME280;2783;48.730;8.006;2023-06-26T04:57:52;99968.81;;;21.38;76.82
5522;BME280;2783;48.730;8.006;2023-06-26T05:00:18;99966.13;;;21.49;77.14
5522;BME280;2783;48.730;8.006;2023-06-26T05:02:43;99972.53;;;21.59;77.19
5522;BME280;2783;48.730;8.006;2023-06-26T05:05:09;99970.22;;;21.65;76.57
5522;BME280;2783;48.730;8.006;2023-06-26T05:07:35;99963.47;;;21.71;75.71
5522;BME280;2783;48.730;8.006;2023-06-26T05:10:01;99959.22;;;21.79;74.81
5522;BME280;2783;48.730;8.006;2023-06-26T05:12:26;99960.28;;;21.88;74.67
5522;BME280;2783;48.730;8.006;2023-06-26T05:14:52;99954.91;;;21.99;74.47
5522;BME280;2783;48.730;8.006;2023-06-26T05:17:17;99961.81;;;22.14;74.71
5522;BME280;2783;48.730;8.006;2023-06-26T05:19:42;99961.53;;;22.28;73.92
5522;BME280;2783;48.730;8.006;2023-06-26T05:22:08;99957.34;;;22.35;73.71
5522;BME280;2783;48.730;8.006;2023-06-26T05:24:38;99975.06;;;22.50;74.05
5522;BME280;2783;48.730;8.006;2023-06-26T05:27:04;99979.75;;;22.59;73.55
5522;BME280;2783;48.730;8.006;2023-06-26T05:29:31;99990.81;;;22.67;73.84
5522;BME280;2783;48.730;8.006;2023-06-26T05:31:56;99986.63;;;22.74;73.23
5522;BME280;2783;48.730;8.006;2023-06-26T05:34:25;99993.00;;;22.84;72.41
5522;BME280;2783;48.730;8.006;2023-06-26T05:36:58;99975.94;;;22.93;72.25
5522;BME280;2783;48.730;8.006;2023-06-26T05:39:24;99981.22;;;23.06;70.99
5522;BME280;2783;48.730;8.006;2023-06-26T05:41:50;99980.28;;;23.16;69.65
5522;BME280;2783;48.730;8.006;2023-06-26T05:44:16;99978.06;;;23.32;69.01
5522;BME280;2783;48.730;8.006;2023-06-26T05:46:41;99978.72;;;23.46;68.74
5522;BME280;2783;48.730;8.006;2023-06-26T05:49:07;99973.81;;;23.60;67.62
5522;BME280;2783;48.730;8.006;2023-06-26T05:51:33;99983.22;;;23.77;66.85
5522;BME280;2783;48.730;8.006;2023-06-26T05:53:59;99986.84;;;23.87;66.23
5522;BME280;2783;48.730;8.006;2023-06-26T05:56:24;99990.25;;;24.00;65.91
5522;BME280;2783;48.730;8.006;2023-06-26T05:58:50;99980.81;;;24.04;64.94
5522;BME280;2783;48.730;8.006;2023-06-26T06:01:17;99988.75;;;24.16;63.79
5522;BME280;2783;48.730;8.006;2023-06-26T06:03:42;99992.06;;;24.20;62.29
5522;BME280;2783;48.730;8.006;2023-06-26T06:06:08;99986.84;;;24.37;62.72
5522;BME280;2783;48.730;8.006;2023-06-26T06:08:33;99991.56;;;24.45;63.06
5522;BME280;2783;48.730;8.006;2023-06-26T06:11:00;99998.19;;;24.52;61.67
5522;BME280;2783;48.730;8.006;2023-06-26T06:13:25;99993.63;;;24.62;61.10
5522;BME280;2783;48.730;8.006;2023-06-26T06:15:50;99997.72;;;24.77;61.02
5522;BME280;2783;48.730;8.006;2023-06-26T06:18:16;99994.88;;;24.88;61.15
5522;BME280;2783;48.730;8.006;2023-06-26T06:20:41;100004.34;;;25.03;61.05
5522;BME280;2783;48.730;8.006;2023-06-26T06:23:07;100010.09;;;25.19;62.17
5522;BME280;2783;48.730;8.006;2023-06-26T06:25:32;100013.16;;;25.35;60.22
5522;BME280;2783;48.730;8.006;2023-06-26T06:27:58;100008.97;;;25.50;60.20
5522;BME280;2783;48.730;8.006;2023-06-26T06:30:23;100014.41;;;25.69;59.35
5522;BME280;2783;48.730;8.006;2023-06-26T06:32:48;100018.16;;;25.78;58.50
5522;BME280;2783;48.730;8.006;2023-06-26T06:35:19;100014.38;;;25.88;57.38
5522;BME280;2783;48.730;8.006;2023-06-26T06:37:45;100007.91;;;25.99;58.13
5522;BME280;2783;48.730;8.006;2023-06-26T06:40:11;100014.38;;;26.08;57.70
5522;BME280;2783;48.730;8.006;2023-06-26T06:42:36;100016.47;;;26.23;56.63
5522;BME280;2783;48.730;8.006;2023-06-26T06:45:03;100014.81;;;26.40;56.50
5522;BME280;2783;48.730;8.006;2023-06-26T06:47:29;100014.88;;;26.57;56.92
5522;BME280;2783;48.730;8.006;2023-06-26T06:49:54;100025.59;;;26.78;57.36
5522;BME280;2783;48.730;8.006;2023-06-26T06:52:19;100022.31;;;26.92;57.52
5522;BME280;2783;48.730;8.006;2023-06-26T06:54:54;100022.53;;;27.08;58.45
5522;BME280;2783;48.730;8.006;2023-06-26T06:57:21;100025.03;;;27.19;57.01
5522;BME280;2783;48.730;8.006;2023-06-26T06:59:47;100022.72;;;27.42;56.71
5522;BME280;2783;48.730;8.006;2023-06-26T07:02:14;100033.72;;;27.50;55.76
5522;BME280;2783;48.730;8.006;2023-06-26T07:04:40;100025.19;;;27.70;55.63
5522;BME280;2783;48.730;8.006;2023-06-26T07:07:06;100025.97;;;27.80;54.10
5522;BME280;2783;48.730;8.006;2023-06-26T07:09:31;100028.84;;;27.96;54.42
5522;BME280;2783;48.730;8.006;2023-06-26T07:11:56;100021.75;;;28.03;52.68
5522;BME280;2783;48.730;8.006;2023-06-26T07:14:23;100019.44;;;28.16;54.42
5522;BME280;2783;48.730;8.006;2023-06-26T07:16:48;100025.03;;;28.40;54.92
5522;BME280;2783;48.730;8.006;2023-06-26T07:19:14;100021.25;;;28.67;52.61
5522;BME280;2783;48.730;8.006;2023-06-26T07:21:39;100022.03;;;28.93;52.40
5522;BME280;2783;48.730;8.006;2023-06-26T07:24:06;100030.03;;;29.12;50.59
5522;BME280;2783;48.730;8.006;2023-06-26T07:26:31;100023.06;;;29.42;50.19
5522;BME280;2783;48.730;8.006;2023-06-26T07:28:57;100021.38;;;29.73;48.58
5522;BME280;2783;48.730;8.006;2023-06-26T07:31:22;100029.06;;;30.18;47.60
5522;BME280;2783;48.730;8.006;2023-06-26T07:33:48;100031.06;;;30.48;46.72
5522;BME280;2783;48.730;8.006;2023-06-26T07:36:13;100040.09;;;30.80;46.75
5522;BME280;2783;48.730;8.006;2023-06-26T07:38:38;100034.59;;;30.64;45.88
5522;BME280;2783;48.730;8.006;2023-06-26T07:41:04;100040.16;;;30.48;46.83
5522;BME280;2783;48.730;8.006;2023-06-26T07:43:29;100043.31;;;30.21;47.01
5522;BME280;2783;48.730;8.006;2023-06-26T07:45:56;100051.91;;;29.78;47.92
5522;BME280;2783;48.730;8.006;2023-06-26T07:48:24;100062.50;;;29.65;48.56
5522;BME280;2783;48.730;8.006;2023-06-26T07:50:49;100056.31;;;29.55;49.90
5522;BME280;2783;48.730;8.006;2023-06-26T07:53:15;100058.69;;;29.42;49.94
5522;BME280;2783;48.730;8.006;2023-06-26T07:55:40;100060.59;;;29.57;48.74
5522;BME280;2783;48.730;8.006;2023-06-26T07:58:07;100058.25;;;29.95;47.94
5522;BME280;2783;48.730;8.006;2023-06-26T08:00:32;100055.44;;;30.43;46.86
5522;BME280;2783;48.730;8.006;2023-06-26T08:02:58;100058.97;;;30.75;45.62
5522;BME280;2783;48.730;8.006;2023-06-26T08:05:23;100062.00;;;30.97;45.25
5522;BME280;2783;48.730;8.006;2023-06-26T08:07:49;100061.53;;;31.16;46.58
5522;BME280;2783;48.730;8.006;2023-06-26T08:10:14;100060.31;;;30.87;46.42
5522;BME280;2783;48.730;8.006;2023-06-26T08:12:39;100062.72;;;30.74;46.73
5522;BME280;2783;48.730;8.006;2023-06-26T08:15:08;100076.50;;;30.66;47.34
5522;BME280;2783;48.730;8.006;2023-06-26T08:17:35;100068.53;;;30.87;46.61
5522;BME280;2783;48.730;8.006;2023-06-26T08:20:01;100067.50;;;30.97;47.13
5522;BME280;2783;48.730;8.006;2023-06-26T08:22:27;100077.28;;;30.91;46.33
5522;BME280;2783;48.730;8.006;2023-06-26T08:24:52;100073.53;;;31.23;47.04
5522;BME280;2783;48.730;8.006;2023-06-26T08:27:17;100082.47;;;31.25;45.84
5522;BME280;2783;48.730;8.006;2023-06-26T08:29:43;100085.31;;;31.09;47.18
5522;BME280;2783;48.730;8.006;2023-06-26T08:32:08;100089.66;;;31.34;46.15
5522;BME280;2783;48.730;8.006;2023-06-26T08:34:34;100090.91;;;31.23;46.92
5522;BME280;2783;48.730;8.006;2023-06-26T08:36:59;100089.97;;;31.00;46.32
5522;BME280;2783;48.730;8.006;2023-06-26T08:39:24;100087.88;;;30.55;47.47
5522;BME280;2783;48.730;8.006;2023-06-26T08:41:50;100090.81;;;30.30;49.21
5522;BME280;2783;48.730;8.006;2023-06-26T08:44:16;100090.44;;;30.17;49.76
5522;BME280;2783;48.730;8.006;2023-06-26T08:46:41;100088.25;;;29.88;49.73
5522;BME280;2783;48.730;8.006;2023-06-26T08:49:17;100092.19;;;29.86;50.26
5522;BME280;2783;48.730;8.006;2023-06-26T08:51:50;100101.25;;;30.10;50.92
5522;BME280;2783;48.730;8.006;2023-06-26T08:54:16;100096.13;;;30.23;50.32
5522;BME280;2783;48.730;8.006;2023-06-26T08:56:44;100111.56;;;29.84;51.18
5522;BME280;2783;48.730;8.006;2023-06-26T08:59:11;100101.78;;;29.82;50.46
5522;BME280;2783;48.730;8.006;2023-06-26T09:01:40;100108.94;;;29.58;51.39
5522;BME280;2783;48.730;8.006;2023-06-26T09:04:05;100113.25;;;29.77;52.58
5522;BME280;2783;48.730;8.006;2023-06-26T09:06:32;100113.63;;;29.98;53.62
5522;BME280;2783;48.730;8.006;2023-06-26T09:08:57;100116.38;;;30.06;51.45
5522;BME280;2783;48.730;8.006;2023-06-26T09:11:23;100125.63;;;30.05;51.54
5522;BME280;2783;48.730;8.006;2023-06-26T09:13:48;100132.13;;;30.12;51.00
5522;BME280;2783;48.730;8.006;2023-06-26T09:16:14;100125.09;;;29.86;51.02
5522;BME280;2783;48.730;8.006;2023-06-26T09:18:42;100129.34;;;29.72;52.16
5522;BME280;2783;48.730;8.006;2023-06-26T09:21:08;100129.34;;;29.72;53.82
5522;BME280;2783;48.730;8.006;2023-06-26T09:23:35;100125.94;;;29.70;54.18
5522;BME280;2783;48.730;8.006;2023-06-26T09:26:05;100121.47;;;29.77;52.91
5522;BME280;2783;48.730;8.006;2023-06-26T09:28:34;100127.16;;;30.48;50.75
5522;BME280;2783;48.730;8.006;2023-06-26T09:31:05;100132.63;;;31.27;48.18
5522;BME280;2783;48.730;8.006;2023-06-26T09:33:35;100133.00;;;31.32;47.79
5522;BME280;2783;48.730;8.006;2023-06-26T09:36:07;100132.84;;;31.56;48.03
5522;BME280;2783;48.730;8.006;2023-06-26T09:38:35;100132.00;;;32.08;47.53
5522;BME280;2783;48.730;8.006;2023-06-26T09:41:02;100140.88;;;32.56;47.18
5522;BME280;2783;48.730;8.006;2023-06-26T09:43:27;100135.38;;;32.33;45.96
5522;BME280;2783;48.730;8.006;2023-06-26T09:45:53;100145.41;;;31.89;45.35
5522;BME280;2783;48.730;8.006;2023-06-26T09:48:19;100138.34;;;31.56;45.67
5522;BME280;2783;48.730;8.006;2023-06-26T09:50:45;100141.72;;;31.27;46.73
5522;BME280;2783;48.730;8.006;2023-06-26T09:53:11;100137.94;;;31.36;46.81
5522;BME280;2783;48.730;8.006;2023-06-26T09:55:41;100147.66;;;31.85;46.92
5522;BME280;2783;48.730;8.006;2023-06-26T09:58:10;100136.44;;;32.32;45.54
5522;BME280;2783;48.730;8.006;2023-06-26T10:00:40;100138.59;;;32.22;44.76
5522;BME280;2783;48.730;8.006;2023-06-26T10:03:05;100141.84;;;32.26;43.93
5522;BME280;2783;48.730;8.006;2023-06-26T10:05:30;100139.59;;;32.81;43.84
5522;BME280;2783;48.730;8.006;2023-06-26T10:07:57;100143.69;;;32.85;42.06
5522;BME280;2783;48.730;8.006;2023-06-26T10:10:25;100146.38;;;33.07;41.78
5522;BME280;2783;48.730;8.006;2023-06-26T10:12:54;100142.06;;;33.49;42.54
5522;BME280;2783;48.730;8.006;2023-06-26T10:15:25;100152.06;;;33.20;41.94
5522;BME280;2783;48.730;8.006;2023-06-26T10:17:51;100124.44;;;32.99;42.00
5522;BME280;2783;48.730;8.006;2023-06-26T10:20:18;100145.03;;;33.47;40.45
5522;BME280;2783;48.730;8.006;2023-06-26T10:22:47;100148.34;;;33.93;40.36
5522;BME280;2783;48.730;8.006;2023-06-26T10:25:17;100143.63;;;34.29;39.74
5522;BME280;2783;48.730;8.006;2023-06-26T10:27:49;100143.19;;;34.74;38.88
5522;BME280;2783;48.730;8.006;2023-06-26T10:30:19;100149.91;;;34.65;39.69
5522;BME280;2783;48.730;8.006;2023-06-26T10:32:46;100141.06;;;35.04;37.93
5522;BME280;2783;48.730;8.006;2023-06-26T10:35:12;100152.19;;;34.83;37.80
5522;BME280;2783;48.730;8.006;2023-06-26T10:37:48;100151.31;;;34.54;37.19
5522;BME280;2783;48.730;8.006;2023-06-26T10:40:18;100149.34;;;35.04;38.18
5522;BME280;2783;48.730;8.006;2023-06-26T10:42:45;100156.69;;;35.24;37.72
5522;BME280;2783;48.730;8.006;2023-06-26T10:45:15;100155.91;;;35.30;36.72
5522;BME280;2783;48.730;8.006;2023-06-26T10:47:41;100145.69;;;34.97;34.61
5522;BME280;2783;48.730;8.006;2023-06-26T10:52:45;100165.16;;;35.16;36.33
5522;BME280;2783;48.730;8.006;2023-06-26T10:55:11;100157.69;;;35.10;34.62
5522;BME280;2783;48.730;8.006;2023-06-26T10:57:36;100167.75;;;35.24;35.03
5522;BME280;2783;48.730;8.006;2023-06-26T11:00:10;100157.66;;;35.38;34.53
5522;BME280;2783;48.730;8.006;2023-06-26T11:02:51;100162.16;;;35.11;34.80
5522;BME280;2783;48.730;8.006;2023-06-26T11:05:32;100161.78;;;35.55;36.22
5522;BME280;2783;48.730;8.006;2023-06-26T11:10:28;100164.19;;;35.77;34.41
5522;BME280;2783;48.730;8.006;2023-06-26T11:12:54;100177.59;;;35.74;34.23
5522;BME280;2783;48.730;8.006;2023-06-26T11:15:25;100172.44;;;35.17;32.99
5522;BME280;2783;48.730;8.006;2023-06-26T11:17:51;100175.47;;;35.29;34.35
5522;BME280;2783;48.730;8.006;2023-06-26T11:20:17;100169.22;;;35.54;32.58
5522;BME280;2783;48.730;8.006;2023-06-26T11:22:43;100167.41;;;35.74;33.44
5522;BME280;2783;48.730;8.006;2023-06-26T11:25:09;100170.78;;;34.95;32.18
5522;BME280;2783;48.730;8.006;2023-06-26T11:30:11;100171.22;;;35.73;33.85
5522;BME280;2783;48.730;8.006;2023-06-26T11:32:38;100164.69;;;35.88;32.74
5522;BME280;2783;48.730;8.006;2023-06-26T11:35:03;100163.47;;;35.56;32.20
5522;BME280;2783;48.730;8.006;2023-06-26T11:37:32;100174.94;;;35.94;33.59
5522;BME280;2783;48.730;8.006;2023-06-26T11:39:59;100172.81;;;35.96;33.06
5522;BME280;2783;48.730;8.006;2023-06-26T11:42:24;100172.38;;;35.99;33.44
5522;BME280;2783;48.730;8.006;2023-06-26T11:44:51;100169.03;;;36.23;32.66
5522;BME280;2783;48.730;8.006;2023-06-26T11:47:17;100169.66;;;36.12;32.00
5522;BME280;2783;48.730;8.006;2023-06-26T11:49:44;100179.47;;;36.08;33.52
5522;BME280;2783;48.730;8.006;2023-06-26T11:52:10;100168.66;;;36.45;33.51
5522;BME280;2783;48.730;8.006;2023-06-26T11:54:35;100174.66;;;36.88;32.87
5522;BME280;2783;48.730;8.006;2023-06-26T11:57:01;100166.97;;;36.64;31.99
5522;BME280;2783;48.730;8.006;2023-06-26T11:59:39;100160.13;;;36.60;31.93
5522;BME280;2783;48.730;8.006;2023-06-26T12:02:10;100163.44;;;35.97;31.97
5522;BME280;2783;48.730;8.006;2023-06-26T12:04:41;100157.66;;;35.92;33.09
5522;BME280;2783;48.730;8.006;2023-06-26T12:07:08;100155.31;;;35.89;31.62
5522;BME280;2783;48.730;8.006;2023-06-26T12:09:42;100156.81;;;35.44;32.65
5522;BME280;2783;48.730;8.006;2023-06-26T12:12:10;100156.63;;;35.99;33.99
5522;BME280;2783;48.730;8.006;2023-06-26T12:14:36;100149.44;;;36.31;32.79
5522;BME280;2783;48.730;8.006;2023-06-26T12:17:08;100157.09;;;36.22;32.87
5522;BME280;2783;48.730;8.006;2023-06-26T12:19:34;100155.44;;;36.54;32.69
5522;BME280;2783;48.730;8.006;2023-06-26T12:22:06;100155.22;;;36.49;32.98
5522;BME280;2783;48.730;8.006;2023-06-26T12:24:31;100158.22;;;36.47;33.56
5522;BME280;2783;48.730;8.006;2023-06-26T12:26:57;100161.22;;;36.85;33.06
5522;BME280;2783;48.730;8.006;2023-06-26T12:29:32;100141.69;;;37.31;31.72
5522;BME280;2783;48.730;8.006;2023-06-26T12:31:58;100158.78;;;37.21;32.51
5522;BME280;2783;48.730;8.006;2023-06-26T12:34:29;100152.47;;;36.88;32.92
5522;BME280;2783;48.730;8.006;2023-06-26T12:37:03;100155.88;;;36.64;33.35
5522;BME280;2783;48.730;8.006;2023-06-26T12:39:29;100156.72;;;36.51;32.38
5522;BME280;2783;48.730;8.006;2023-06-26T12:42:13;100152.63;;;36.28;33.54
5522;BME280;2783;48.730;8.006;2023-06-26T12:44:39;100150.31;;;36.38;33.39
5522;BME280;2783;48.730;8.006;2023-06-26T12:47:04;100155.66;;;36.59;33.11
5522;BME280;2783;48.730;8.006;2023-06-26T12:49:35;100152.03;;;36.65;33.53
5522;BME280;2783;48.730;8.006;2023-06-26T12:52:03;100157.13;;;36.42;32.79
5522;BME280;2783;48.730;8.006;2023-06-26T12:54:29;100144.78;;;36.64;32.30
5522;BME280;2783;48.730;8.006;2023-06-26T12:56:54;100137.75;;;36.81;33.22
5522;BME280;2783;48.730;8.006;2023-06-26T12:59:20;100156.31;;;36.87;32.12
5522;BME280;2783;48.730;8.006;2023-06-26T13:01:46;100151.38;;;36.37;33.84
5522;BME280;2783;48.730;8.006;2023-06-26T13:04:11;100150.00;;;35.94;32.29
5522;BME280;2783;48.730;8.006;2023-06-26T13:06:36;100149.78;;;35.89;33.53
5522;BME280;2783;48.730;8.006;2023-06-26T13:09:02;100141.63;;;35.80;33.29
5522;BME280;2783;48.730;8.006;2023-06-26T13:11:32;100143.41;;;35.95;32.56
5522;BME280;2783;48.730;8.006;2023-06-26T13:13:58;100140.13;;;35.31;33.58
5522;BME280;2783;48.730;8.006;2023-06-26T13:16:24;100136.97;;;35.34;33.96
5522;BME280;2783;48.730;8.006;2023-06-26T13:18:50;100138.75;;;35.48;33.82
5522;BME280;2783;48.730;8.006;2023-06-26T13:21:16;100126.88;;;35.60;34.28